Time;durP1;ratioP1;P1;durP2;ratioP2;P2;SDS_P1;SDS_P2;PMS_P1;PMS_P2;Temp;Humidity;BMP_temperature;BMP_pressure;BME280_temperature;BME280_humidity;BME280_pressure;Samples;Min_cycle;Max_cycle;Signal;HPM_P1;HPM_P2
2022/12/27 00:00:58;;;;;;;4.37;1.00;;;4.70;99.90;;;;;;5041714;28;20075;-66
2022/12/27 00:03:24;;;;;;;1.60;0.70;;;4.70;99.90;;;;;;5042916;28;20073;-67
2022/12/27 00:05:50;;;;;;;3.23;0.60;;;4.70;99.90;;;;;;5047625;28;20112;-65
2022/12/27 00:08:15;;;;;;;3.60;1.13;;;4.70;99.90;;;;;;5032956;28;20045;-66
2022/12/27 00:10:41;;;;;;;3.77;0.70;;;4.60;99.90;;;;;;5048829;28;20045;-67
2022/12/27 00:13:07;;;;;;;4.83;0.83;;;4.60;99.90;;;;;;5047094;28;20055;-66
2022/12/27 00:15:33;;;;;;;8.13;1.37;;;4.70;99.90;;;;;;5034951;28;20494;-66
2022/12/27 00:17:59;;;;;;;4.97;0.93;;;4.60;99.90;;;;;;5041258;28;20045;-66
2022/12/27 00:20:24;;;;;;;6.83;1.10;;;4.70;99.90;;;;;;5062612;28;20487;-67
2022/12/27 00:22:50;;;;;;;8.23;0.93;;;4.60;99.90;;;;;;5059971;28;20048;-66
2022/12/27 00:25:16;;;;;;;14.03;1.27;;;4.60;99.90;;;;;;5070866;28;20581;-66
2022/12/27 00:27:42;;;;;;;5.87;0.60;;;4.70;99.90;;;;;;5059037;28;20051;-66
2022/12/27 00:30:08;;;;;;;5.00;1.70;;;4.70;99.90;;;;;;5037171;28;20044;-66
2022/12/27 00:32:33;;;;;;;6.78;1.02;;;4.80;99.90;;;;;;5048882;28;20110;-67
2022/12/27 00:34:59;;;;;;;6.82;1.00;;;4.80;99.90;;;;;;5050659;28;20067;-65
2022/12/27 00:37:25;;;;;;;4.67;0.83;;;4.90;99.90;;;;;;5061377;28;20072;-65
2022/12/27 00:39:50;;;;;;;3.27;0.90;;;4.90;99.90;;;;;;5052238;28;20040;-66
2022/12/27 00:42:16;;;;;;;2.57;0.93;;;4.90;99.90;;;;;;5062765;28;20363;-66
2022/12/27 00:44:44;;;;;;;6.67;1.40;;;4.90;99.90;;;;;;5032438;28;20059;-66
2022/12/27 00:47:13;;;;;;;5.93;1.25;;;5.00;99.90;;;;;;5049578;28;20041;-65
2022/12/27 00:49:38;;;;;;;4.63;0.82;;;5.10;99.90;;;;;;5050146;28;20554;-66
2022/12/27 00:52:04;;;;;;;6.47;1.43;;;5.10;99.90;;;;;;5049932;28;20120;-68
2022/12/27 00:54:30;;;;;;;3.13;0.90;;;5.00;99.90;;;;;;5049669;28;20510;-66
2022/12/27 00:56:56;;;;;;;6.67;0.80;;;5.10;99.90;;;;;;5061311;28;20045;-67
2022/12/27 00:59:21;;;;;;;5.10;0.73;;;5.10;99.90;;;;;;5042677;28;20294;-66
2022/12/27 01:01:47;;;;;;;6.40;1.07;;;5.10;99.90;;;;;;5049584;28;20041;-68
2022/12/27 01:04:14;;;;;;;9.25;1.20;;;5.20;99.90;;;;;;5050168;28;20097;-66
2022/12/27 01:06:40;;;;;;;3.70;1.23;;;5.20;99.90;;;;;;5055477;28;20062;-66
2022/12/27 01:09:05;;;;;;;3.70;0.80;;;5.20;99.90;;;;;;5056999;28;20071;-66
2022/12/27 01:11:32;;;;;;;9.20;1.00;;;5.20;99.90;;;;;;5049376;28;20048;-66
2022/12/27 01:13:59;;;;;;;;;;;5.20;99.90;;;;;;5048723;28;20600;-66
2022/12/27 01:16:26;;;;;;;8.05;1.30;;;5.20;99.90;;;;;;5049472;28;19927;-67
2022/12/27 01:18:53;;;;;;;9.00;1.00;;;5.20;99.90;;;;;;5048647;28;20098;-66
2022/12/27 01:21:19;;;;;;;;;;;5.30;99.90;;;;;;5050078;28;20222;-67
2022/12/27 01:23:45;;;;;;;3.97;0.82;;;5.30;99.90;;;;;;5031972;28;19924;-66
2022/12/27 01:26:14;;;;;;;4.15;0.68;;;5.30;99.90;;;;;;5049719;28;20375;-66
2022/12/27 01:28:40;;;;;;;5.07;0.70;;;5.20;99.90;;;;;;5031084;28;20076;-66
2022/12/27 01:31:07;;;;;;;8.53;0.87;;;5.20;99.90;;;;;;5049205;28;20037;-66
2022/12/27 01:33:33;;;;;;;7.97;1.00;;;5.20;99.90;;;;;;5049494;28;20052;-66
2022/12/27 01:36:14;;;;;;;5.50;0.98;;;5.20;99.90;;;;;;5049190;28;20036;-67
2022/12/27 01:38:43;;;;;;;12.77;1.05;;;5.20;99.90;;;;;;5030869;28;20063;-66
2022/12/27 01:43:58;;;;;;;6.55;0.90;;;5.30;99.90;;;;;;5049212;28;20055;-66
2022/12/27 01:46:24;;;;;;;5.40;0.90;;;5.30;99.90;;;;;;5019194;28;20041;-66
2022/12/27 01:48:49;;;;;;;10.60;1.40;;;5.30;99.90;;;;;;5048994;28;20116;-66
2022/12/27 01:51:16;;;;;;;3.77;1.10;;;5.30;99.90;;;;;;5050301;28;20270;-66
2022/12/27 01:53:47;;;;;;;10.00;1.35;;;5.30;99.90;;;;;;5030764;28;20131;-67
2022/12/27 01:56:25;;;;;;;6.93;0.98;;;5.30;99.90;;;;;;5048984;28;20049;-67
2022/12/27 01:59:01;;;;;;;3.65;1.13;;;5.30;99.90;;;;;;5053853;28;20045;-66
2022/12/27 02:01:31;;;;;;;6.82;0.90;;;5.20;99.90;;;;;;5041795;28;20068;-66
2022/12/27 02:04:04;;;;;;;8.63;1.00;;;5.20;99.90;;;;;;5031123;28;20037;-66
2022/12/27 02:06:31;;;;;;;4.50;0.75;;;5.20;99.90;;;;;;5048388;28;20037;-66
2022/12/27 02:09:06;;;;;;;10.52;1.20;;;5.20;99.90;;;;;;5048618;28;20048;-66
2022/12/27 02:11:50;;;;;;;9.25;1.40;;;5.20;99.90;;;;;;5046835;28;20041;-66
2022/12/27 02:14:21;;;;;;;4.90;1.17;;;5.20;99.90;;;;;;5048254;28;20059;-66
2022/12/27 02:16:47;;;;;;;6.13;1.13;;;5.20;99.90;;;;;;5046553;28;20068;-66
2022/12/27 02:19:55;;;;;;;5.18;0.85;;;5.10;99.90;;;;;;5030771;28;20045;-66
2022/12/27 02:22:27;;;;;;;4.82;1.02;;;5.10;99.90;;;;;;4999666;28;20167;-66
2022/12/27 02:25:31;;;;;;;8.32;1.50;;;5.10;99.90;;;;;;5047251;28;20156;-66
2022/12/27 02:28:21;;;;;;;6.03;0.93;;;5.10;99.90;;;;;;5042706;28;20045;-66
2022/12/27 02:30:52;;;;;;;7.57;0.98;;;5.10;99.90;;;;;;5048211;28;20072;-66
2022/12/27 02:33:23;;;;;;;5.05;1.23;;;5.20;99.90;;;;;;5048150;28;20037;-66
2022/12/27 02:36:02;;;;;;;5.82;1.00;;;5.20;99.90;;;;;;5048411;28;20033;-66
2022/12/27 02:38:32;;;;;;;5.43;0.88;;;5.20;99.90;;;;;;5048235;28;20041;-66
2022/12/27 02:53:02;;;;;;;4.82;1.20;;;5.10;99.90;;;;;;5048043;28;20049;-65
2022/12/27 02:55:38;;;;;;;6.30;1.17;;;5.00;99.90;;;;;;5054373;28;20036;-66
2022/12/27 02:58:09;;;;;;;7.18;1.73;;;5.00;99.90;;;;;;5063947;28;20119;-67
2022/12/27 03:04:06;;;;;;;5.53;1.20;;;5.00;99.90;;;;;;5048046;28;20033;-66
2022/12/27 03:06:41;;;;;;;3.97;0.80;;;5.00;99.90;;;;;;5039222;28;20049;-66
2022/12/27 03:15:53;;;;;;;7.60;1.00;;;4.90;99.90;;;;;;5047606;28;20281;-66
2022/12/27 03:18:45;;;;;;;10.77;1.20;;;4.90;99.90;;;;;;5029665;28;20060;-67
2022/12/27 03:25:26;;;;;;;7.90;1.25;;;4.90;99.90;;;;;;5047872;28;20119;-66
2022/12/27 03:27:18;;;;;;;9.70;2.00;;;5.00;99.90;;;;;;5047018;28;20041;-66
2022/12/27 03:33:11;;;;;;;7.65;1.10;;;5.00;99.90;;;;;;5067798;28;20345;-66
2022/12/27 03:39:03;;;;;;;5.05;1.25;;;5.10;99.90;;;;;;5048925;28;20118;-66
2022/12/27 03:44:25;;;;;;;10.00;1.38;;;5.20;99.90;;;;;;5059305;28;20049;-66
2022/12/27 03:47:06;;;;;;;11.30;1.58;;;5.20;99.90;;;;;;5051490;28;20091;-67
2022/12/27 03:49:52;;;;;;;4.68;1.17;;;5.20;99.90;;;;;;5050419;28;20049;-66
2022/12/27 03:52:30;;;;;;;7.18;0.77;;;5.10;99.90;;;;;;5051936;28;20049;-66
2022/12/27 03:54:57;;;;;;;5.13;1.15;;;5.10;99.90;;;;;;5052038;28;20501;-66
2022/12/27 03:57:25;;;;;;;18.63;2.15;;;5.10;99.90;;;;;;5066022;28;20048;-66
2022/12/27 03:59:51;;;;;;;8.40;0.98;;;5.10;99.90;;;;;;5053079;28;20044;-65
2022/12/27 04:02:16;;;;;;;9.07;0.70;;;5.20;99.90;;;;;;5060256;28;20079;-67
2022/12/27 04:04:42;;;;;;;2.10;1.10;;;5.20;99.90;;;;;;5048996;28;20475;-66
2022/12/27 04:07:09;;;;;;;2.60;0.70;;;5.10;99.90;;;;;;5051259;28;20037;-66
2022/12/27 04:36:58;;;;;;;8.05;1.17;;;4.80;99.90;;;;;;5061498;28;20040;-67
2022/12/27 04:39:23;;;;;;;5.93;1.10;;;4.80;99.90;;;;;;5053344;28;20139;-66
2022/12/27 04:55:50;;;;;;;8.48;1.00;;;5.00;99.90;;;;;;5030573;28;20045;-66
2022/12/27 04:58:16;;;;;;;4.73;0.97;;;5.00;99.90;;;;;;5043402;28;20048;-67
2022/12/27 05:03:26;;;;;;;6.47;0.85;;;4.80;99.90;;;;;;5032381;28;20045;-66
2022/12/27 05:05:52;;;;;;;3.73;1.10;;;4.80;99.90;;;;;;5050436;28;20354;-66
2022/12/27 05:14:01;;;;;;;6.35;1.33;;;4.70;99.90;;;;;;5052198;28;20475;-66
2022/12/27 05:16:41;;;;;;;7.10;1.23;;;4.70;99.90;;;;;;5048710;28;20104;-66
2022/12/27 05:19:09;;;;;;;6.18;1.00;;;4.70;99.90;;;;;;5048484;28;20052;-66
2022/12/27 05:25:33;;;;;;;9.00;1.80;;;4.70;99.90;;;;;;5049777;28;20049;-67
2022/12/27 05:26:55;;;;;;;4.25;0.98;;;4.70;99.90;;;;;;5025017;28;20053;-70
2022/12/27 05:29:20;;;;;;;6.55;0.93;;;4.60;99.90;;;;;;5003202;28;20049;-70
2022/12/27 05:31:46;;;;;;;3.83;0.80;;;4.70;99.90;;;;;;5022829;28;20051;-71
2022/12/27 05:34:12;;;;;;;7.00;0.80;;;4.60;99.90;;;;;;5008357;28;20482;-70
2022/12/27 05:36:37;;;;;;;7.50;1.10;;;4.60;99.90;;;;;;5009499;28;20041;-70
2022/12/27 05:39:03;;;;;;;5.93;1.17;;;4.60;99.90;;;;;;5025509;28;20042;-70
2022/12/27 05:41:28;;;;;;;10.17;1.00;;;4.50;99.90;;;;;;5005657;28;20132;-71
2022/12/27 05:43:54;;;;;;;7.90;1.73;;;4.50;99.90;;;;;;5024643;28;20041;-71
2022/12/27 05:46:21;;;;;;;4.63;1.33;;;4.40;99.90;;;;;;5025410;28;20041;-71
2022/12/27 05:48:47;;;;;;;8.48;1.23;;;4.40;99.90;;;;;;5021694;28;20041;-70
2022/12/27 05:51:18;;;;;;;4.63;2.20;;;4.40;99.90;;;;;;5026098;28;20045;-71
2022/12/27 05:53:44;;;;;;;9.15;1.17;;;4.40;99.90;;;;;;5024808;28;20049;-71
2022/12/27 05:56:15;;;;;;;3.90;1.30;;;4.40;99.90;;;;;;5021565;28;20037;-70
2022/12/27 05:58:42;;;;;;;6.57;1.30;;;4.40;99.90;;;;;;4995973;28;20139;-70
2022/12/27 06:01:13;;;;;;;8.18;1.50;;;4.30;99.90;;;;;;5008040;28;20124;-70
2022/12/27 06:03:39;;;;;;;6.07;1.90;;;4.30;99.90;;;;;;5021431;28;20085;-70
2022/12/27 06:06:06;;;;;;;5.37;0.97;;;4.40;99.90;;;;;;5005664;28;20095;-71
2022/12/27 06:08:32;;;;;;;7.07;1.70;;;4.30;99.90;;;;;;5024508;28;20315;-70
2022/12/27 06:11:24;;;;;;;8.50;1.98;;;4.30;99.90;;;;;;5007624;28;20628;-71
2022/12/27 06:13:52;;;;;;;3.55;1.10;;;4.30;99.90;;;;;;5018461;28;20060;-70
2022/12/27 06:16:20;;;;;;;5.88;1.20;;;4.30;99.90;;;;;;5007218;28;20076;-71
2022/12/27 06:18:46;;;;;;;6.68;1.85;;;4.30;99.90;;;;;;4989911;28;20127;-70
2022/12/27 06:21:15;;;;;;;2.47;1.07;;;4.20;99.90;;;;;;5025526;28;20398;-70
2022/12/27 06:23:43;;;;;;;3.30;0.82;;;4.20;99.90;;;;;;5018903;28;20078;-70
2022/12/27 06:26:21;;;;;;;8.30;1.20;;;4.10;99.90;;;;;;5011266;28;20106;-70
2022/12/27 06:28:48;;;;;;;4.20;0.82;;;4.20;99.90;;;;;;4991023;28;20050;-70
2022/12/27 06:31:15;;;;;;;8.05;1.65;;;4.10;99.90;;;;;;5019097;28;20402;-70
2022/12/27 06:33:41;;;;;;;5.63;1.15;;;4.10;99.90;;;;;;5005628;28;20175;-70
2022/12/27 06:36:09;;;;;;;6.60;1.60;;;4.10;99.90;;;;;;5024603;28;20565;-70
2022/12/27 06:38:34;;;;;;;5.78;0.90;;;4.10;99.90;;;;;;4991680;28;20049;-70
2022/12/27 06:41:05;;;;;;;3.90;1.03;;;4.10;99.90;;;;;;5022586;28;20112;-70
2022/12/27 06:43:30;;;;;;;6.00;0.93;;;4.10;99.90;;;;;;5008988;28;20069;-71
2022/12/27 06:46:01;;;;;;;6.67;1.60;;;4.10;99.90;;;;;;5024941;28;20103;-71
2022/12/27 06:48:28;;;;;;;6.20;1.38;;;4.10;99.90;;;;;;5020004;28;20329;-70
2022/12/27 06:50:54;;;;;;;6.60;1.10;;;4.20;99.90;;;;;;5006585;28;20486;-70
2022/12/27 06:53:19;;;;;;;1.65;0.70;;;4.20;99.90;;;;;;5006834;28;20150;-70
2022/12/27 06:55:45;;;;;;;5.20;0.88;;;4.30;99.90;;;;;;5005265;28;20041;-71
2022/12/27 06:58:12;;;;;;;4.43;0.80;;;4.30;99.90;;;;;;5019060;28;20484;-71
2022/12/27 07:00:38;;;;;;;5.50;1.58;;;4.30;99.90;;;;;;5024099;28;20358;-71
2022/12/27 07:03:04;;;;;;;9.20;1.23;;;4.30;99.90;;;;;;5002229;28;20042;-70
2022/12/27 07:05:29;;;;;;;2.43;0.80;;;4.30;99.90;;;;;;5006241;28;20042;-70
2022/12/27 07:07:55;;;;;;;6.63;1.47;;;4.30;99.90;;;;;;5006442;28;20403;-70
2022/12/27 07:10:20;;;;;;;5.23;1.03;;;4.30;99.90;;;;;;5024579;28;20120;-70
2022/12/27 07:12:46;;;;;;;6.73;1.80;;;4.30;99.90;;;;;;5002996;28;20132;-70
2022/12/27 07:15:12;;;;;;;9.50;1.70;;;4.30;99.90;;;;;;5024701;28;20053;-71
2022/12/27 07:17:38;;;;;;;12.93;2.30;;;4.20;99.90;;;;;;5027511;28;20700;-71
2022/12/27 07:20:05;;;;;;;3.35;1.13;;;4.20;99.90;;;;;;5028625;28;20422;-70
2022/12/27 07:22:31;;;;;;;5.22;1.27;;;4.20;99.90;;;;;;5025679;28;20128;-71
2022/12/27 07:24:57;;;;;;;9.60;1.47;;;4.20;99.90;;;;;;5028076;28;20041;-71
2022/12/27 07:27:22;;;;;;;7.50;1.65;;;4.20;99.90;;;;;;5008549;28;20041;-70
2022/12/27 07:29:48;;;;;;;4.60;1.30;;;4.10;99.90;;;;;;5021935;28;20320;-70
2022/12/27 07:32:14;;;;;;;8.57;1.40;;;4.10;99.90;;;;;;5006787;28;20313;-71
2022/12/27 07:34:39;;;;;;;3.97;1.20;;;4.10;99.90;;;;;;5027725;28;20045;-71
2022/12/27 07:37:05;;;;;;;5.37;1.00;;;4.10;99.90;;;;;;5028150;28;20037;-70
2022/12/27 07:39:31;;;;;;;7.37;1.07;;;4.10;99.90;;;;;;5026162;28;20045;-71
2022/12/27 07:41:56;;;;;;;5.37;2.30;;;4.00;99.90;;;;;;5012944;28;20041;-71
2022/12/27 07:44:22;;;;;;;9.73;1.47;;;4.00;99.90;;;;;;5009618;28;20053;-71
2022/12/27 07:46:49;;;;;;;6.97;1.40;;;4.00;99.90;;;;;;5010496;28;20121;-70
2022/12/27 07:49:14;;;;;;;7.20;1.83;;;4.00;99.90;;;;;;5026266;28;20041;-70
2022/12/27 07:51:40;;;;;;;7.20;0.97;;;4.00;99.90;;;;;;5023692;28;20049;-71
2022/12/27 07:54:06;;;;;;;6.17;1.27;;;3.90;99.90;;;;;;5009351;28;20091;-70
2022/12/27 07:56:32;;;;;;;6.47;1.37;;;3.90;99.90;;;;;;5025409;28;20501;-71
2022/12/27 07:58:59;;;;;;;5.90;1.33;;;3.90;99.90;;;;;;5026722;28;20522;-70
2022/12/27 08:01:27;;;;;;;7.55;1.10;;;3.90;99.90;;;;;;5009531;28;20049;-70
2022/12/27 08:03:53;;;;;;;11.50;1.58;;;3.90;99.90;;;;;;4992923;28;20041;-71
2022/12/27 08:06:37;;;;;;;5.82;1.35;;;3.90;99.90;;;;;;5008908;28;20137;-71
2022/12/27 08:09:05;;;;;;;3.60;1.05;;;3.90;99.90;;;;;;4989835;28;20050;-70
2022/12/27 08:11:30;;;;;;;9.75;1.40;;;3.80;99.90;;;;;;5026858;28;20045;-71
2022/12/27 08:13:56;;;;;;;4.77;1.20;;;3.80;99.90;;;;;;5008903;28;20113;-71
2022/12/27 08:16:24;;;;;;;10.98;1.63;;;3.80;99.90;;;;;;5027158;28;20042;-71
2022/12/27 08:18:49;;;;;;;5.82;1.63;;;3.80;99.90;;;;;;5027062;28;20125;-70
2022/12/27 08:21:15;;;;;;;4.47;1.23;;;3.80;99.90;;;;;;5026987;28;20136;-70
2022/12/27 08:23:41;;;;;;;3.10;0.95;;;3.80;99.90;;;;;;5004750;28;20045;-70
2022/12/27 08:26:08;;;;;;;4.40;1.17;;;3.80;99.90;;;;;;5026484;28;20048;-70
2022/12/27 08:28:34;;;;;;;7.35;1.70;;;3.80;99.90;;;;;;5006912;28;20053;-69
2022/12/27 08:31:00;;;;;;;9.23;1.23;;;3.80;99.90;;;;;;5007830;28;20472;-69
2022/12/27 08:33:26;;;;;;;7.38;0.93;;;3.80;99.90;;;;;;5020799;28;20077;-69
2022/12/27 08:35:52;;;;;;;8.45;1.50;;;3.80;99.90;;;;;;5026418;28;20045;-70
2022/12/27 08:38:18;;;;;;;6.95;1.50;;;3.90;99.90;;;;;;5009438;28;20790;-70
2022/12/27 08:40:45;;;;;;;7.93;2.03;;;3.80;99.90;;;;;;5025503;28;20108;-70
2022/12/27 08:43:11;;;;;;;12.98;1.58;;;3.80;99.90;;;;;;5025857;28;21236;-70
2022/12/27 08:45:38;;;;;;;4.07;1.20;;;3.80;99.90;;;;;;5008766;28;20142;-69
2022/12/27 08:48:05;;;;;;;9.80;1.85;;;3.90;99.90;;;;;;5026307;28;20058;-69
2022/12/27 08:50:31;;;;;;;4.55;1.35;;;3.90;99.90;;;;;;5025610;28;20109;-69
2022/12/27 08:52:58;;;;;;;9.20;1.52;;;3.90;99.90;;;;;;5026726;28;20068;-69
2022/12/27 08:55:28;;;;;;;7.40;2.33;;;3.90;99.90;;;;;;5006715;28;20509;-69
2022/12/27 08:58:03;;;;;;;7.32;1.50;;;4.00;99.90;;;;;;4998713;28;20562;-69
2022/12/27 09:00:29;;;;;;;2.28;1.40;;;4.00;99.90;;;;;;5025856;28;20041;-69
2022/12/27 09:02:55;;;;;;;7.95;1.27;;;4.10;99.90;;;;;;5023874;28;20052;-69
2022/12/27 09:05:23;;;;;;;4.90;1.10;;;4.10;99.90;;;;;;5006095;28;20053;-69
2022/12/27 09:07:49;;;;;;;6.30;1.60;;;4.10;99.90;;;;;;5023908;28;20060;-69
2022/12/27 09:10:15;;;;;;;3.95;1.48;;;4.20;99.90;;;;;;5023550;28;20045;-69
2022/12/27 09:12:41;;;;;;;7.47;2.25;;;4.20;99.90;;;;;;5025496;28;20037;-69
2022/12/27 09:15:07;;;;;;;7.17;1.40;;;4.20;99.90;;;;;;5008305;28;20455;-69
2022/12/27 09:17:33;;;;;;;7.55;1.38;;;4.30;99.90;;;;;;5021418;28;20172;-69
2022/12/27 09:19:58;;;;;;;9.73;1.97;;;4.30;99.90;;;;;;5026196;28;20582;-69
2022/12/27 09:22:24;;;;;;;4.70;1.03;;;4.30;99.90;;;;;;5024034;28;20386;-69
2022/12/27 09:24:50;;;;;;;6.10;1.13;;;4.30;99.90;;;;;;5007353;28;20065;-69
2022/12/27 09:27:15;;;;;;;5.53;1.03;;;4.40;99.90;;;;;;5020465;28;20446;-69
2022/12/27 09:29:41;;;;;;;7.37;2.27;;;4.40;99.90;;;;;;5010071;28;20053;-69
2022/12/27 09:32:07;;;;;;;5.47;1.50;;;4.40;99.90;;;;;;5025681;28;20073;-69
2022/12/27 09:34:32;;;;;;;8.03;1.87;;;4.40;99.90;;;;;;5005845;28;20361;-69
2022/12/27 09:36:58;;;;;;;6.53;1.83;;;4.50;99.90;;;;;;5004139;28;20049;-69
2022/12/27 09:39:23;;;;;;;8.63;1.70;;;4.50;99.90;;;;;;5006705;28;20537;-69
2022/12/27 09:42:02;;;;;;;8.90;1.23;;;4.60;99.90;;;;;;5025362;28;20056;-69
2022/12/27 09:44:50;;;;;;;9.75;1.17;;;4.60;99.90;;;;;;5006171;28;20092;-69
2022/12/27 09:47:36;;;;;;;9.27;1.73;;;4.70;99.90;;;;;;5003011;28;20466;-69
2022/12/27 09:50:31;;;;;;;4.63;1.48;;;4.70;99.90;;;;;;5020161;28;20041;-69
2022/12/27 09:53:04;;;;;;;4.05;1.33;;;4.80;99.90;;;;;;5024329;28;20045;-69
2022/12/27 09:55:39;;;;;;;5.25;1.42;;;4.90;99.90;;;;;;5003409;28;20045;-69
2022/12/27 09:58:34;;;;;;;8.95;1.45;;;5.00;99.90;;;;;;5006283;28;20084;-69
2022/12/27 10:01:01;;;;;;;8.95;1.40;;;5.00;99.90;;;;;;5004742;28;20119;-69
2022/12/27 10:03:29;;;;;;;5.07;1.15;;;5.00;99.90;;;;;;5020652;28;20168;-69
2022/12/27 10:06:20;;;;;;;4.97;1.25;;;5.10;99.90;;;;;;5007940;28;20088;-69
2022/12/27 10:08:49;;;;;;;4.30;1.50;;;5.20;99.90;;;;;;5005525;28;20502;-69
2022/12/27 10:11:36;;;;;;;12.80;1.80;;;5.20;99.90;;;;;;5025262;28;20702;-69
2022/12/27 10:14:07;;;;;;;10.68;1.75;;;5.30;99.90;;;;;;5023627;28;20577;-68
2022/12/27 10:16:43;;;;;;;5.25;2.05;;;5.40;99.90;;;;;;5024828;28;20118;-69
2022/12/27 10:19:20;;;;;;;5.03;1.52;;;5.60;99.90;;;;;;5019850;28;20511;-68
2022/12/27 10:22:24;;;;;;;6.82;1.67;;;5.70;99.90;;;;;;5024838;28;20258;-69
2022/12/27 10:24:53;;;;;;;6.95;1.85;;;5.80;99.90;;;;;;4986647;28;20052;-68
2022/12/27 10:27:24;;;;;;;5.75;1.75;;;5.90;99.90;;;;;;4999593;28;20444;-69
2022/12/27 10:29:56;;;;;;;6.97;1.10;;;6.00;99.90;;;;;;5022429;28;20037;-69
2022/12/27 10:32:22;;;;;;;5.80;1.50;;;6.00;99.90;;;;;;5024061;28;20045;-69
2022/12/27 10:34:56;;;;;;;6.73;1.57;;;6.10;99.90;;;;;;5024710;28;20150;-69
2022/12/27 10:37:22;;;;;;;7.57;1.20;;;6.20;99.90;;;;;;5014043;28;20283;-69
2022/12/27 10:39:47;;;;;;;2.63;1.10;;;6.20;99.90;;;;;;5024824;28;20068;-70
2022/12/27 10:42:30;;;;;;;9.07;1.70;;;6.30;99.90;;;;;;5024578;28;20041;-69
2022/12/27 10:45:38;;;;;;;3.60;1.50;;;6.30;99.90;;;;;;4999710;28;20461;-69
2022/12/27 10:48:13;;;;;;;6.43;1.65;;;6.40;99.90;;;;;;5020772;28;20041;-69
2022/12/27 10:51:05;;;;;;;9.18;2.08;;;6.40;99.90;;;;;;5011955;28;20045;-69
2022/12/27 10:53:40;;;;;;;8.57;1.80;;;6.50;99.90;;;;;;5020443;28;20064;-69
2022/12/27 10:56:24;;;;;;;5.68;1.60;;;6.50;99.90;;;;;;5026389;28;20121;-69
2022/12/27 10:58:52;;;;;;;8.38;1.55;;;6.50;99.90;;;;;;5005798;28;20124;-70
2022/12/27 11:01:28;;;;;;;6.13;2.13;;;6.50;99.90;;;;;;5022947;28;20066;-69
2022/12/27 11:04:21;;;;;;;10.60;1.30;;;6.60;99.90;;;;;;5016992;28;20519;-69
2022/12/27 11:07:11;;;;;;;3.45;1.40;;;6.60;99.90;;;;;;5024720;28;20164;-69
2022/12/27 11:09:42;;;;;;;4.97;1.70;;;6.70;99.90;;;;;;5006147;28;20138;-69
2022/12/27 11:12:23;;;;;;;10.55;1.58;;;6.70;99.90;;;;;;5023920;28;20095;-69
2022/12/27 11:15:16;;;;;;;6.03;1.23;;;6.70;99.90;;;;;;5024456;28;20052;-69
2022/12/27 11:17:43;;;;;;;7.22;1.40;;;6.60;99.90;;;;;;5023197;28;20038;-69
2022/12/27 11:20:22;;;;;;;6.13;1.95;;;6.70;99.90;;;;;;5006071;28;20062;-69
2022/12/27 11:23:01;;;;;;;7.05;2.08;;;6.60;99.90;;;;;;5006367;28;20444;-69
2022/12/27 11:25:29;;;;;;;10.80;2.35;;;6.60;99.90;;;;;;5024234;28;20037;-69
2022/12/27 11:28:21;;;;;;;4.20;1.30;;;6.60;99.90;;;;;;5003939;28;20049;-69
2022/12/27 11:30:58;;;;;;;6.25;1.70;;;6.50;99.90;;;;;;5023629;28;20341;-69
2022/12/27 11:33:47;;;;;;;5.07;1.25;;;6.50;99.90;;;;;;5006338;28;20106;-69
2022/12/27 11:36:22;;;;;;;6.82;1.52;;;6.50;99.90;;;;;;5013060;28;20530;-69
2022/12/27 11:38:49;;;;;;;9.25;1.30;;;6.50;99.90;;;;;;5023768;28;20037;-69
2022/12/27 11:41:32;;;;;;;8.18;1.38;;;6.40;99.90;;;;;;5024207;28;20045;-69
2022/12/27 11:44:15;;;;;;;5.93;1.10;;;6.40;99.90;;;;;;5016913;28;20042;-69
2022/12/27 11:47:03;;;;;;;4.78;1.27;;;6.40;99.90;;;;;;5005815;28;20593;-69
2022/12/27 11:49:39;;;;;;;7.20;1.25;;;6.40;99.90;;;;;;5023768;28;20099;-69
2022/12/27 11:52:22;;;;;;;3.05;1.10;;;6.40;99.90;;;;;;5006035;28;20061;-69
2022/12/27 11:55:21;;;;;;;3.47;1.38;;;6.40;99.90;;;;;;5020993;28;20136;-70
2022/12/27 11:58:24;;;;;;;7.15;1.45;;;6.40;99.90;;;;;;5002711;28;20077;-69
2022/12/27 12:00:58;;;;;;;6.95;1.35;;;6.40;99.90;;;;;;5024274;28;20072;-69
2022/12/27 12:03:55;;;;;;;4.75;1.15;;;6.50;99.90;;;;;;5020623;28;20041;-69
2022/12/27 12:06:33;;;;;;;4.10;1.02;;;6.60;99.90;;;;;;5005416;28;20339;-69
2022/12/27 12:09:24;;;;;;;5.85;1.23;;;6.60;99.90;;;;;;5002626;28;20049;-69
2022/12/27 12:12:23;;;;;;;5.60;1.13;;;6.70;99.90;;;;;;5024913;28;20514;-69
2022/12/27 12:15:10;;;;;;;5.30;1.30;;;6.70;99.90;;;;;;5027163;28;20106;-69
2022/12/27 12:17:42;;;;;;;2.10;0.90;;;6.80;99.90;;;;;;5027592;28;20272;-69
2022/12/27 12:20:29;;;;;;;5.50;1.52;;;6.90;99.90;;;;;;5008950;28;20121;-69
2022/12/27 12:23:04;;;;;;;11.05;1.33;;;6.80;99.90;;;;;;5027376;28;20080;-69
2022/12/27 12:25:57;;;;;;;11.60;2.05;;;6.80;99.90;;;;;;5008589;28;20041;-69
2022/12/27 12:28:47;;;;;;;6.28;1.30;;;6.80;99.90;;;;;;5017999;28;20041;-69
2022/12/27 12:31:21;;;;;;;7.90;1.10;;;6.90;99.90;;;;;;5008818;28;20041;-69
2022/12/27 12:34:06;;;;;;;4.78;1.40;;;7.00;99.90;;;;;;5026657;28;20131;-69
2022/12/27 12:36:39;;;;;;;5.35;1.13;;;7.10;99.90;;;;;;5022528;28;20034;-69
2022/12/27 12:39:31;;;;;;;6.20;1.17;;;7.00;99.90;;;;;;5008207;28;20045;-69
2022/12/27 12:42:12;;;;;;;4.25;1.05;;;7.00;99.90;;;;;;5002972;28;20121;-70
2022/12/27 12:44:46;;;;;;;9.60;1.58;;;7.00;99.90;;;;;;5027070;28;20033;-69
2022/12/27 12:47:34;;;;;;;11.10;1.80;;;6.90;99.90;;;;;;5009016;28;20121;-69
2022/12/27 12:50:13;;;;;;;4.68;1.35;;;6.90;99.90;;;;;;5023850;28;20084;-69
2022/12/27 12:53:10;;;;;;;7.95;1.33;;;6.80;99.90;;;;;;5027343;28;20435;-69
2022/12/27 12:56:04;;;;;;;7.18;1.52;;;6.80;99.90;;;;;;5024811;28;20044;-70
2022/12/27 12:59:00;;;;;;;10.88;1.13;;;6.90;99.90;;;;;;5022787;28;20065;-70
2022/12/27 13:01:56;;;;;;;8.25;1.75;;;6.90;99.90;;;;;;5011083;28;20037;-69
2022/12/27 13:05:01;;;;;;;5.35;1.52;;;6.90;99.90;;;;;;5017837;28;20037;-69
2022/12/27 13:07:39;;;;;;;3.33;0.85;;;6.80;99.90;;;;;;5008779;28;20204;-70
2022/12/27 13:10:36;;;;;;;8.75;1.33;;;6.80;99.90;;;;;;5001484;28;20061;-70
2022/12/27 13:13:31;;;;;;;6.80;1.58;;;6.80;99.90;;;;;;5022523;28;20080;-69
2022/12/27 13:16:11;;;;;;;8.50;1.63;;;6.90;99.90;;;;;;4942944;28;20114;-69
2022/12/27 13:18:47;;;;;;;7.38;1.30;;;6.90;99.90;;;;;;5008750;28;20041;-69
2022/12/27 13:21:39;;;;;;;8.73;1.55;;;6.90;99.90;;;;;;4991381;28;20037;-69
2022/12/27 13:24:26;;;;;;;5.13;1.60;;;7.00;99.90;;;;;;5007069;28;20467;-69
2022/12/27 13:27:13;;;;;;;11.68;1.85;;;7.00;99.90;;;;;;5007874;28;20092;-69
2022/12/27 13:29:51;;;;;;;;;;;7.00;99.90;;;;;;5022911;28;20247;-69
2022/12/27 13:32:53;;;;;;;13.70;2.85;;;7.00;99.90;;;;;;5007973;28;19927;-69
2022/12/27 13:35:27;;;;;;;7.57;1.58;;;6.90;99.90;;;;;;4995698;28;20292;-69
2022/12/27 13:38:02;;;;;;;6.85;1.90;;;6.90;99.90;;;;;;4999374;28;20041;-69
2022/12/27 13:40:46;;;;;;;7.80;2.20;;;6.80;99.90;;;;;;5006195;28;20038;-69
2022/12/27 13:43:45;;;;;;;5.70;1.85;;;6.80;99.90;;;;;;5023007;28;20041;-69
2022/12/27 13:46:31;;;;;;;5.35;1.67;;;6.80;99.90;;;;;;5002666;28;20069;-69
2022/12/27 13:49:06;;;;;;;7.75;1.63;;;6.80;99.90;;;;;;5006447;28;20366;-69
2022/12/27 13:51:43;;;;;;;11.20;2.22;;;6.70;99.90;;;;;;5025766;28;20307;-69
2022/12/27 13:54:29;;;;;;;7.82;2.40;;;6.70;99.90;;;;;;5026493;28;20041;-69
2022/12/27 13:57:13;;;;;;;7.57;2.33;;;6.70;99.90;;;;;;4991518;28;20081;-69
2022/12/27 14:00:00;;;;;;;10.65;3.58;;;6.70;99.90;;;;;;5024310;28;20195;-69
2022/12/27 14:02:43;;;;;;;6.90;2.40;;;6.70;99.90;;;;;;5022380;28;20128;-69
2022/12/27 14:05:36;;;;;;;8.20;2.28;;;6.60;99.90;;;;;;5019189;28;20463;-69
2022/12/27 14:08:34;;;;;;;7.40;2.17;;;6.60;99.90;;;;;;5021716;28;20162;-69
2022/12/27 14:11:01;;;;;;;7.55;3.38;;;6.60;99.90;;;;;;5007421;28;20483;-69
2022/12/27 14:13:31;;;;;;;7.07;2.33;;;6.60;99.90;;;;;;5025226;28;20283;-69
2022/12/27 14:16:11;;;;;;;6.20;1.88;;;6.60;99.90;;;;;;5021527;28;20137;-69
2022/12/27 14:19:04;;;;;;;5.13;2.03;;;6.60;99.90;;;;;;5005123;28;20523;-69
2022/12/27 14:21:48;;;;;;;7.88;1.63;;;6.60;99.90;;;;;;5004582;28;20048;-69
2022/12/27 14:24:51;;;;;;;9.25;2.00;;;6.60;99.90;;;;;;4985330;28;20112;-69
2022/12/27 14:27:38;;;;;;;10.02;4.07;;;6.60;99.90;;;;;;5001877;28;20052;-69
2022/12/27 14:30:29;;;;;;;10.27;2.92;;;6.50;99.90;;;;;;5019399;28;20136;-69
2022/12/27 14:33:19;;;;;;;7.57;2.50;;;6.50;99.90;;;;;;5004725;28;20056;-69
2022/12/27 14:36:03;;;;;;;7.38;2.30;;;6.50;99.90;;;;;;5023708;28;20033;-69
2022/12/27 14:38:41;;;;;;;10.77;4.60;;;6.50;99.90;;;;;;5009072;28;20053;-69
2022/12/27 14:41:44;;;;;;;7.47;2.67;;;6.40;99.90;;;;;;5004383;28;20042;-70
2022/12/27 14:44:32;;;;;;;5.00;2.05;;;6.40;99.90;;;;;;5009131;28;20386;-69
2022/12/27 14:47:03;;;;;;;7.38;2.40;;;6.40;99.90;;;;;;5021894;28;20166;-69
2022/12/27 14:49:31;;;;;;;7.07;2.38;;;6.40;99.90;;;;;;5018121;28;20417;-69
2022/12/27 14:52:26;;;;;;;12.25;2.17;;;6.40;99.90;;;;;;5024719;28;20037;-69
2022/12/27 14:55:25;;;;;;;7.88;2.35;;;6.30;99.90;;;;;;5024376;28;20078;-69
2022/12/27 14:58:11;;;;;;;8.05;2.30;;;6.20;99.90;;;;;;5019884;28;20467;-69
2022/12/27 15:01:01;;;;;;;6.50;2.35;;;6.20;99.90;;;;;;5004493;28;20160;-69
2022/12/27 15:03:29;;;;;;;5.93;2.47;;;6.20;99.90;;;;;;5020789;28;20034;-69